sensor_id;sensor_type;location;lat;lon;timestamp;P1;durP1;ratioP1;P2;durP2;ratioP2
28003;SDS011;15330;51.234;6.754;2024-02-26T00:02:08;2.13;;;1.50;;
28003;SDS011;15330;51.234;6.754;2024-02-26T00:04:33;3.55;;;1.50;;
28003;SDS011;15330;51.234;6.754;2024-02-26T00:06:58;3.00;;;1.65;;
28003;SDS011;15330;51.234;6.754;2024-02-26T00:09:24;2.38;;;1.60;;
28003;SDS011;15330;51.234;6.754;2024-02-26T00:11:49;2.90;;;1.42;;
28003;SDS011;15330;51.234;6.754;2024-02-26T00:14:14;8.23;;;1.65;;
28003;SDS011;15330;51.234;6.754;2024-02-26T00:16:40;2.47;;;1.27;;
28003;SDS011;15330;51.234;6.754;2024-02-26T00:19:06;2.10;;;1.40;;
28003;SDS011;15330;51.234;6.754;2024-02-26T00:21:32;2.15;;;1.30;;
28003;SDS011;15330;51.234;6.754;2024-02-26T00:23:57;2.45;;;1.58;;
28003;SDS011;15330;51.234;6.754;2024-02-26T00:26:23;4.97;;;1.58;;
28003;SDS011;15330;51.234;6.754;2024-02-26T00:28:48;6.13;;;1.50;;
28003;SDS011;15330;51.234;6.754;2024-02-26T00:31:14;1.70;;;1.40;;
28003;SDS011;15330;51.234;6.754;2024-02-26T00:33:39;1.60;;;1.30;;
28003;SDS011;15330;51.234;6.754;2024-02-26T00:36:04;1.40;;;1.13;;
28003;SDS011;15330;51.234;6.754;2024-02-26T00:38:30;2.13;;;1.50;;
28003;SDS011;15330;51.234;6.754;2024-02-26T00:40:55;3.33;;;1.27;;
28003;SDS011;15330;51.234;6.754;2024-02-26T00:43:21;3.38;;;1.40;;
28003;SDS011;15330;51.234;6.754;2024-02-26T00:45:46;2.88;;;1.40;;
28003;SDS011;15330;51.234;6.754;2024-02-26T00:48:12;3.95;;;1.70;;
28003;SDS011;15330;51.234;6.754;2024-02-26T00:50:38;2.38;;;1.60;;
28003;SDS011;15330;51.234;6.754;2024-02-26T00:53:04;1.80;;;1.20;;
28003;SDS011;15330;51.234;6.754;2024-02-26T00:55:30;2.97;;;1.25;;
28003;SDS011;15330;51.234;6.754;2024-02-26T00:57:55;1.27;;;1.17;;
28003;SDS011;15330;51.234;6.754;2024-02-26T01:00:21;4.22;;;1.30;;
28003;SDS011;15330;51.234;6.754;2024-02-26T01:02:46;2.97;;;1.85;;
28003;SDS011;15330;51.234;6.754;2024-02-26T01:05:12;4.85;;;1.60;;
28003;SDS011;15330;51.234;6.754;2024-02-26T01:07:38;2.80;;;1.13;;
28003;SDS011;15330;51.234;6.754;2024-02-26T01:10:05;2.35;;;1.45;;
28003;SDS011;15330;51.234;6.754;2024-02-26T01:12:33;4.10;;;1.60;;
28003;SDS011;15330;51.234;6.754;2024-02-26T01:14:59;1.30;;;1.13;;
28003;SDS011;15330;51.234;6.754;2024-02-26T01:17:25;1.95;;;1.48;;
28003;SDS011;15330;51.234;6.754;2024-02-26T01:19:51;6.20;;;1.60;;
28003;SDS011;15330;51.234;6.754;2024-02-26T01:22:16;2.70;;;1.40;;
28003;SDS011;15330;51.234;6.754;2024-02-26T01:24:42;1.85;;;1.25;;
28003;SDS011;15330;51.234;6.754;2024-02-26T01:27:07;2.45;;;1.73;;
28003;SDS011;15330;51.234;6.754;2024-02-26T01:29:34;2.78;;;1.70;;
28003;SDS011;15330;51.234;6.754;2024-02-26T01:31:59;2.70;;;1.45;;
28003;SDS011;15330;51.234;6.754;2024-02-26T01:34:24;3.22;;;1.77;;
28003;SDS011;15330;51.234;6.754;2024-02-26T01:36:50;3.22;;;1.40;;
28003;SDS011;15330;51.234;6.754;2024-02-26T01:39:15;2.50;;;1.40;;
28003;SDS011;15330;51.234;6.754;2024-02-26T01:41:41;1.77;;;1.25;;
28003;SDS011;15330;51.234;6.754;2024-02-26T01:44:06;2.20;;;1.30;;
28003;SDS011;15330;51.234;6.754;2024-02-26T01:46:35;5.65;;;1.23;;
28003;SDS011;15330;51.234;6.754;2024-02-26T01:49:01;2.10;;;1.40;;
28003;SDS011;15330;51.234;6.754;2024-02-26T01:51:28;2.78;;;1.40;;
28003;SDS011;15330;51.234;6.754;2024-02-26T01:53:55;1.25;;;1.15;;
28003;SDS011;15330;51.234;6.754;2024-02-26T01:56:21;2.40;;;1.60;;
28003;SDS011;15330;51.234;6.754;2024-02-26T01:58:47;3.80;;;1.50;;
28003;SDS011;15330;51.234;6.754;2024-02-26T02:01:14;2.95;;;1.42;;
28003;SDS011;15330;51.234;6.754;2024-02-26T02:03:41;2.75;;;1.52;;
28003;SDS011;15330;51.234;6.754;2024-02-26T02:06:07;3.50;;;1.10;;
28003;SDS011;15330;51.234;6.754;2024-02-26T02:08:33;2.83;;;1.40;;
28003;SDS011;15330;51.234;6.754;2024-02-26T02:11:00;1.90;;;1.20;;
28003;SDS011;15330;51.234;6.754;2024-02-26T02:13:26;4.10;;;1.50;;
28003;SDS011;15330;51.234;6.754;2024-02-26T02:15:52;2.53;;;1.23;;
28003;SDS011;15330;51.234;6.754;2024-02-26T02:18:17;1.65;;;1.20;;
28003;SDS011;15330;51.234;6.754;2024-02-26T02:20:44;1.15;;;1.00;;
28003;SDS011;15330;51.234;6.754;2024-02-26T02:23:10;3.13;;;1.38;;
28003;SDS011;15330;51.234;6.754;2024-02-26T02:25:35;3.75;;;1.13;;
28003;SDS011;15330;51.234;6.754;2024-02-26T02:28:01;2.38;;;1.63;;
28003;SDS011;15330;51.234;6.754;2024-02-26T02:30:28;3.33;;;1.48;;
28003;SDS011;15330;51.234;6.754;2024-02-26T02:32:54;2.33;;;1.38;;
28003;SDS011;15330;51.234;6.754;2024-02-26T02:35:20;1.85;;;1.40;;
28003;SDS011;15330;51.234;6.754;2024-02-26T02:37:46;1.48;;;1.10;;
28003;SDS011;15330;51.234;6.754;2024-02-26T02:40:11;2.22;;;1.45;;
28003;SDS011;15330;51.234;6.754;2024-02-26T02:42:36;1.77;;;1.30;;
28003;SDS011;15330;51.234;6.754;2024-02-26T02:45:02;2.10;;;1.48;;
28003;SDS011;15330;51.234;6.754;2024-02-26T02:47:27;2.47;;;1.30;;
28003;SDS011;15330;51.234;6.754;2024-02-26T02:49:53;3.55;;;1.58;;
28003;SDS011;15330;51.234;6.754;2024-02-26T02:52:18;2.47;;;1.50;;
28003;SDS011;15330;51.234;6.754;2024-02-26T02:54:44;1.95;;;1.40;;
28003;SDS011;15330;51.234;6.754;2024-02-26T02:57:09;3.80;;;1.67;;
28003;SDS011;15330;51.234;6.754;2024-02-26T02:59:35;2.08;;;1.27;;
28003;SDS011;15330;51.234;6.754;2024-02-26T03:02:02;1.83;;;1.60;;
28003;SDS011;15330;51.234;6.754;2024-02-26T03:04:27;2.25;;;1.60;;
28003;SDS011;15330;51.234;6.754;2024-02-26T03:06:54;2.75;;;1.70;;
28003;SDS011;15330;51.234;6.754;2024-02-26T03:09:19;3.05;;;1.67;;
28003;SDS011;15330;51.234;6.754;2024-02-26T03:11:45;2.63;;;1.65;;
28003;SDS011;15330;51.234;6.754;2024-02-26T03:14:10;2.90;;;1.98;;
28003;SDS011;15330;51.234;6.754;2024-02-26T03:16:36;4.05;;;1.98;;
28003;SDS011;15330;51.234;6.754;2024-02-26T03:19:01;3.25;;;1.83;;
28003;SDS011;15330;51.234;6.754;2024-02-26T03:21:28;3.22;;;1.73;;
28003;SDS011;15330;51.234;6.754;2024-02-26T03:23:53;2.72;;;1.88;;
28003;SDS011;15330;51.234;6.754;2024-02-26T03:26:19;2.67;;;1.65;;
28003;SDS011;15330;51.234;6.754;2024-02-26T03:28:44;3.80;;;1.98;;
28003;SDS011;15330;51.234;6.754;2024-02-26T03:31:10;5.07;;;1.90;;
28003;SDS011;15330;51.234;6.754;2024-02-26T03:33:35;2.35;;;1.75;;
28003;SDS011;15330;51.234;6.754;2024-02-26T03:36:01;3.90;;;2.08;;
28003;SDS011;15330;51.234;6.754;2024-02-26T03:38:28;4.65;;;1.60;;
28003;SDS011;15330;51.234;6.754;2024-02-26T03:40:54;2.65;;;1.65;;
28003;SDS011;15330;51.234;6.754;2024-02-26T03:43:19;2.97;;;1.88;;
28003;SDS011;15330;51.234;6.754;2024-02-26T03:45:45;2.58;;;1.60;;
28003;SDS011;15330;51.234;6.754;2024-02-26T03:48:10;3.78;;;1.83;;
28003;SDS011;15330;51.234;6.754;2024-02-26T03:50:35;3.08;;;1.67;;
28003;SDS011;15330;51.234;6.754;2024-02-26T03:53:01;3.03;;;1.80;;
28003;SDS011;15330;51.234;6.754;2024-02-26T03:55:26;3.08;;;1.73;;
28003;SDS011;15330;51.234;6.754;2024-02-26T03:57:52;2.75;;;1.70;;
28003;SDS011;15330;51.234;6.754;2024-02-26T04:00:17;3.05;;;1.92;;
28003;SDS011;15330;51.234;6.754;2024-02-26T04:02:43;4.72;;;2.10;;
28003;SDS011;15330;51.234;6.754;2024-02-26T04:05:11;2.00;;;1.80;;
28003;SDS011;15330;51.234;6.754;2024-02-26T04:07:38;3.58;;;1.85;;
28003;SDS011;15330;51.234;6.754;2024-02-26T04:10:08;4.68;;;1.95;;
28003;SDS011;15330;51.234;6.754;2024-02-26T04:12:34;1.80;;;1.70;;
28003;SDS011;15330;51.234;6.754;2024-02-26T04:14:59;3.22;;;2.00;;
28003;SDS011;15330;51.234;6.754;2024-02-26T04:17:25;3.25;;;2.10;;
28003;SDS011;15330;51.234;6.754;2024-02-26T04:19:50;3.58;;;1.70;;
28003;SDS011;15330;51.234;6.754;2024-02-26T04:22:16;2.33;;;2.00;;
28003;SDS011;15330;51.234;6.754;2024-02-26T04:24:41;3.15;;;1.65;;
28003;SDS011;15330;51.234;6.754;2024-02-26T04:27:06;5.03;;;2.00;;
28003;SDS011;15330;51.234;6.754;2024-02-26T04:29:32;2.90;;;1.80;;
28003;SDS011;15330;51.234;6.754;2024-02-26T04:31:57;4.95;;;2.10;;
28003;SDS011;15330;51.234;6.754;2024-02-26T04:34:22;4.60;;;2.33;;
28003;SDS011;15330;51.234;6.754;2024-02-26T04:36:48;3.15;;;1.90;;
28003;SDS011;15330;51.234;6.754;2024-02-26T04:39:13;5.75;;;1.98;;
28003;SDS011;15330;51.234;6.754;2024-02-26T04:41:39;2.33;;;1.90;;
28003;SDS011;15330;51.234;6.754;2024-02-26T04:44:04;3.67;;;2.00;;
28003;SDS011;15330;51.234;6.754;2024-02-26T04:46:30;2.80;;;1.75;;
28003;SDS011;15330;51.234;6.754;2024-02-26T04:48:55;3.33;;;2.20;;
28003;SDS011;15330;51.234;6.754;2024-02-26T04:51:21;4.03;;;2.63;;
28003;SDS011;15330;51.234;6.754;2024-02-26T04:53:46;2.70;;;2.00;;
28003;SDS011;15330;51.234;6.754;2024-02-26T04:56:12;4.53;;;2.67;;
28003;SDS011;15330;51.234;6.754;2024-02-26T04:58:37;5.50;;;2.22;;
28003;SDS011;15330;51.234;6.754;2024-02-26T05:01:03;3.05;;;2.35;;
28003;SDS011;15330;51.234;6.754;2024-02-26T05:03:29;4.38;;;2.58;;
28003;SDS011;15330;51.234;6.754;2024-02-26T05:05:54;3.97;;;2.70;;
28003;SDS011;15330;51.234;6.754;2024-02-26T05:08:20;5.80;;;2.60;;
28003;SDS011;15330;51.234;6.754;2024-02-26T05:10:45;3.80;;;2.88;;
28003;SDS011;15330;51.234;6.754;2024-02-26T05:13:11;3.60;;;2.40;;
28003;SDS011;15330;51.234;6.754;2024-02-26T05:15:36;3.30;;;2.60;;
28003;SDS011;15330;51.234;6.754;2024-02-26T05:18:02;5.85;;;2.75;;
28003;SDS011;15330;51.234;6.754;2024-02-26T05:20:28;4.80;;;2.40;;
28003;SDS011;15330;51.234;6.754;2024-02-26T05:22:53;4.38;;;2.83;;
28003;SDS011;15330;51.234;6.754;2024-02-26T05:25:19;3.50;;;2.60;;
28003;SDS011;15330;51.234;6.754;2024-02-26T05:27:44;4.25;;;2.65;;
28003;SDS011;15330;51.234;6.754;2024-02-26T05:30:10;4.75;;;2.65;;
28003;SDS011;15330;51.234;6.754;2024-02-26T05:32:36;4.20;;;2.78;;
28003;SDS011;15330;51.234;6.754;2024-02-26T05:35:02;4.20;;;2.95;;
28003;SDS011;15330;51.234;6.754;2024-02-26T05:37:30;5.60;;;2.97;;
28003;SDS011;15330;51.234;6.754;2024-02-26T05:39:56;4.15;;;3.05;;
28003;SDS011;15330;51.234;6.754;2024-02-26T05:42:21;4.90;;;3.10;;
28003;SDS011;15330;51.234;6.754;2024-02-26T05:44:46;4.38;;;3.05;;
28003;SDS011;15330;51.234;6.754;2024-02-26T05:47:12;4.07;;;3.10;;
28003;SDS011;15330;51.234;6.754;2024-02-26T05:49:38;5.35;;;3.58;;
28003;SDS011;15330;51.234;6.754;2024-02-26T05:52:04;5.15;;;3.22;;
28003;SDS011;15330;51.234;6.754;2024-02-26T05:54:30;5.38;;;3.03;;
28003;SDS011;15330;51.234;6.754;2024-02-26T05:56:55;4.38;;;3.35;;
28003;SDS011;15330;51.234;6.754;2024-02-26T05:59:21;6.13;;;4.13;;
28003;SDS011;15330;51.234;6.754;2024-02-26T06:01:46;4.35;;;3.28;;
28003;SDS011;15330;51.234;6.754;2024-02-26T06:04:12;5.45;;;3.28;;
28003;SDS011;15330;51.234;6.754;2024-02-26T06:06:37;5.40;;;3.20;;
28003;SDS011;15330;51.234;6.754;2024-02-26T06:09:02;5.03;;;4.15;;
28003;SDS011;15330;51.234;6.754;2024-02-26T06:11:30;7.53;;;3.85;;
28003;SDS011;15330;51.234;6.754;2024-02-26T06:13:56;5.40;;;3.55;;
28003;SDS011;15330;51.234;6.754;2024-02-26T06:16:21;5.38;;;3.75;;
28003;SDS011;15330;51.234;6.754;2024-02-26T06:18:46;11.20;;;3.95;;
28003;SDS011;15330;51.234;6.754;2024-02-26T06:21:12;5.45;;;3.70;;
28003;SDS011;15330;51.234;6.754;2024-02-26T06:23:38;5.47;;;3.53;;
28003;SDS011;15330;51.234;6.754;2024-02-26T06:26:04;7.43;;;3.90;;
28003;SDS011;15330;51.234;6.754;2024-02-26T06:28:29;4.55;;;3.67;;
28003;SDS011;15330;51.234;6.754;2024-02-26T06:30:57;5.65;;;4.35;;
28003;SDS011;15330;51.234;6.754;2024-02-26T06:33:22;5.47;;;4.10;;
28003;SDS011;15330;51.234;6.754;2024-02-26T06:35:48;5.95;;;3.88;;
28003;SDS011;15330;51.234;6.754;2024-02-26T06:38:13;6.35;;;4.43;;
28003;SDS011;15330;51.234;6.754;2024-02-26T06:40:39;6.53;;;4.32;;
28003;SDS011;15330;51.234;6.754;2024-02-26T06:43:04;7.10;;;3.85;;
28003;SDS011;15330;51.234;6.754;2024-02-26T06:45:31;4.93;;;3.78;;
28003;SDS011;15330;51.234;6.754;2024-02-26T06:47:56;6.22;;;4.20;;
28003;SDS011;15330;51.234;6.754;2024-02-26T06:50:22;8.20;;;4.43;;
28003;SDS011;15330;51.234;6.754;2024-02-26T06:52:47;4.55;;;3.63;;
28003;SDS011;15330;51.234;6.754;2024-02-26T06:55:12;7.40;;;4.15;;
28003;SDS011;15330;51.234;6.754;2024-02-26T06:57:38;5.65;;;3.83;;
28003;SDS011;15330;51.234;6.754;2024-02-26T07:00:04;5.47;;;3.90;;
28003;SDS011;15330;51.234;6.754;2024-02-26T07:02:30;5.93;;;4.13;;
28003;SDS011;15330;51.234;6.754;2024-02-26T07:04:55;6.40;;;4.20;;
28003;SDS011;15330;51.234;6.754;2024-02-26T07:07:23;10.43;;;4.40;;
28003;SDS011;15330;51.234;6.754;2024-02-26T07:09:48;6.43;;;4.35;;
28003;SDS011;15330;51.234;6.754;2024-02-26T07:12:14;5.38;;;4.07;;
28003;SDS011;15330;51.234;6.754;2024-02-26T07:14:41;7.68;;;4.53;;
28003;SDS011;15330;51.234;6.754;2024-02-26T07:17:06;6.93;;;4.28;;
28003;SDS011;15330;51.234;6.754;2024-02-26T07:19:32;5.97;;;4.03;;
28003;SDS011;15330;51.234;6.754;2024-02-26T07:21:57;7.35;;;4.40;;
28003;SDS011;15330;51.234;6.754;2024-02-26T07:24:23;5.20;;;4.22;;
28003;SDS011;15330;51.234;6.754;2024-02-26T07:26:48;6.30;;;4.55;;
28003;SDS011;15330;51.234;6.754;2024-02-26T07:29:14;6.30;;;4.50;;
28003;SDS011;15330;51.234;6.754;2024-02-26T07:31:39;5.32;;;4.15;;
28003;SDS011;15330;51.234;6.754;2024-02-26T07:34:04;9.18;;;4.20;;
28003;SDS011;15330;51.234;6.754;2024-02-26T07:36:30;8.73;;;4.45;;
28003;SDS011;15330;51.234;6.754;2024-02-26T07:38:55;6.15;;;4.38;;
28003;SDS011;15330;51.234;6.754;2024-02-26T07:41:21;5.88;;;4.80;;
28003;SDS011;15330;51.234;6.754;2024-02-26T07:43:46;6.75;;;5.22;;
28003;SDS011;15330;51.234;6.754;2024-02-26T07:46:12;10.23;;;4.90;;
28003;SDS011;15330;51.234;6.754;2024-02-26T07:48:37;7.60;;;4.47;;
28003;SDS011;15330;51.234;6.754;2024-02-26T07:51:03;10.25;;;4.95;;
28003;SDS011;15330;51.234;6.754;2024-02-26T07:53:29;8.40;;;4.90;;
28003;SDS011;15330;51.234;6.754;2024-02-26T07:55:55;6.90;;;4.65;;
28003;SDS011;15330;51.234;6.754;2024-02-26T07:58:21;6.32;;;4.90;;
28003;SDS011;15330;51.234;6.754;2024-02-26T08:00:48;8.90;;;4.78;;
28003;SDS011;15330;51.234;6.754;2024-02-26T08:03:14;6.00;;;4.68;;
28003;SDS011;15330;51.234;6.754;2024-02-26T08:05:40;6.78;;;4.82;;
28003;SDS011;15330;51.234;6.754;2024-02-26T08:08:08;7.93;;;4.47;;
28003;SDS011;15330;51.234;6.754;2024-02-26T08:10:34;6.65;;;4.70;;
28003;SDS011;15330;51.234;6.754;2024-02-26T08:12:59;7.15;;;5.03;;
28003;SDS011;15330;51.234;6.754;2024-02-26T08:15:33;5.63;;;4.50;;
28003;SDS011;15330;51.234;6.754;2024-02-26T08:18:00;8.32;;;4.50;;
28003;SDS011;15330;51.234;6.754;2024-02-26T08:20:28;7.00;;;4.50;;
28003;SDS011;15330;51.234;6.754;2024-02-26T08:22:54;5.85;;;4.53;;
28003;SDS011;15330;51.234;6.754;2024-02-26T08:25:19;6.88;;;4.47;;
28003;SDS011;15330;51.234;6.754;2024-02-26T08:27:45;5.75;;;4.07;;
28003;SDS011;15330;51.234;6.754;2024-02-26T08:30:12;8.98;;;4.32;;
28003;SDS011;15330;51.234;6.754;2024-02-26T08:32:41;6.03;;;3.88;;
28003;SDS011;15330;51.234;6.754;2024-02-26T08:35:07;6.00;;;4.07;;
28003;SDS011;15330;51.234;6.754;2024-02-26T08:37:33;6.22;;;4.10;;
28003;SDS011;15330;51.234;6.754;2024-02-26T08:39:58;4.72;;;3.72;;
28003;SDS011;15330;51.234;6.754;2024-02-26T08:42:23;7.80;;;3.78;;
28003;SDS011;15330;51.234;6.754;2024-02-26T08:44:49;6.25;;;4.00;;
28003;SDS011;15330;51.234;6.754;2024-02-26T08:47:14;5.60;;;4.00;;
28003;SDS011;15330;51.234;6.754;2024-02-26T08:49:44;4.28;;;3.63;;
28003;SDS011;15330;51.234;6.754;2024-02-26T08:52:10;7.50;;;4.05;;
28003;SDS011;15330;51.234;6.754;2024-02-26T08:54:36;4.18;;;3.72;;
28003;SDS011;15330;51.234;6.754;2024-02-26T08:57:01;6.95;;;3.88;;
28003;SDS011;15330;51.234;6.754;2024-02-26T08:59:27;5.85;;;4.03;;
28003;SDS011;15330;51.234;6.754;2024-02-26T09:01:53;5.32;;;3.95;;
28003;SDS011;15330;51.234;6.754;2024-02-26T09:04:18;7.18;;;3.75;;
28003;SDS011;15330;51.234;6.754;2024-02-26T09:06:44;4.72;;;3.75;;
28003;SDS011;15330;51.234;6.754;2024-02-26T09:09:09;5.15;;;3.78;;
28003;SDS011;15330;51.234;6.754;2024-02-26T09:11:36;6.80;;;4.13;;
28003;SDS011;15330;51.234;6.754;2024-02-26T09:14:01;6.78;;;4.15;;
28003;SDS011;15330;51.234;6.754;2024-02-26T09:16:28;8.30;;;4.10;;
28003;SDS011;15330;51.234;6.754;2024-02-26T09:18:54;7.32;;;3.63;;
28003;SDS011;15330;51.234;6.754;2024-02-26T09:21:19;6.75;;;3.95;;
28003;SDS011;15330;51.234;6.754;2024-02-26T09:23:48;9.45;;;4.20;;
28003;SDS011;15330;51.234;6.754;2024-02-26T09:26:17;6.20;;;3.78;;
28003;SDS011;15330;51.234;6.754;2024-02-26T09:28:43;4.50;;;3.25;;
28003;SDS011;15330;51.234;6.754;2024-02-26T09:31:08;6.78;;;3.83;;
28003;SDS011;15330;51.234;6.754;2024-02-26T09:33:35;6.65;;;4.10;;
28003;SDS011;15330;51.234;6.754;2024-02-26T09:36:00;4.93;;;3.55;;
28003;SDS011;15330;51.234;6.754;2024-02-26T09:38:27;6.40;;;4.03;;
28003;SDS011;15330;51.234;6.754;2024-02-26T09:40:52;7.18;;;3.90;;
28003;SDS011;15330;51.234;6.754;2024-02-26T09:43:20;6.47;;;3.88;;
28003;SDS011;15330;51.234;6.754;2024-02-26T09:45:47;6.00;;;4.05;;
28003;SDS011;15330;51.234;6.754;2024-02-26T09:48:15;7.00;;;3.90;;
28003;SDS011;15330;51.234;6.754;2024-02-26T09:50:42;6.82;;;4.10;;
28003;SDS011;15330;51.234;6.754;2024-02-26T09:53:08;4.55;;;3.42;;
28003;SDS011;15330;51.234;6.754;2024-02-26T09:55:36;7.07;;;4.18;;
28003;SDS011;15330;51.234;6.754;2024-02-26T09:58:01;7.47;;;3.80;;
28003;SDS011;15330;51.234;6.754;2024-02-26T10:00:30;6.45;;;4.20;;
28003;SDS011;15330;51.234;6.754;2024-02-26T10:03:01;6.00;;;3.92;;
28003;SDS011;15330;51.234;6.754;2024-02-26T10:05:29;6.30;;;4.15;;
28003;SDS011;15330;51.234;6.754;2024-02-26T10:07:56;6.63;;;4.38;;
28003;SDS011;15330;51.234;6.754;2024-02-26T10:10:25;7.55;;;4.28;;
28003;SDS011;15330;51.234;6.754;2024-02-26T10:12:52;7.25;;;4.93;;
28003;SDS011;15330;51.234;6.754;2024-02-26T10:15:18;9.02;;;5.00;;
28003;SDS011;15330;51.234;6.754;2024-02-26T10:17:43;10.00;;;5.05;;
28003;SDS011;15330;51.234;6.754;2024-02-26T10:20:12;6.72;;;4.60;;
28003;SDS011;15330;51.234;6.754;2024-02-26T10:22:42;7.70;;;4.70;;
28003;SDS011;15330;51.234;6.754;2024-02-26T10:25:11;7.50;;;4.18;;
28003;SDS011;15330;51.234;6.754;2024-02-26T10:27:36;6.95;;;4.30;;
28003;SDS011;15330;51.234;6.754;2024-02-26T10:30:03;7.13;;;4.40;;
28003;SDS011;15330;51.234;6.754;2024-02-26T10:32:30;7.32;;;4.43;;
28003;SDS011;15330;51.234;6.754;2024-02-26T10:34:56;7.68;;;4.60;;
28003;SDS011;15330;51.234;6.754;2024-02-26T10:37:22;9.70;;;5.50;;
28003;SDS011;15330;51.234;6.754;2024-02-26T10:39:48;7.43;;;4.82;;
28003;SDS011;15330;51.234;6.754;2024-02-26T10:42:13;6.05;;;4.53;;
28003;SDS011;15330;51.234;6.754;2024-02-26T10:44:40;7.32;;;4.70;;
28003;SDS011;15330;51.234;6.754;2024-02-26T10:47:06;6.90;;;4.78;;
28003;SDS011;15330;51.234;6.754;2024-02-26T10:49:33;7.75;;;4.82;;
28003;SDS011;15330;51.234;6.754;2024-02-26T10:52:00;9.45;;;5.30;;
28003;SDS011;15330;51.234;6.754;2024-02-26T10:54:26;9.85;;;5.45;;
28003;SDS011;15330;51.234;6.754;2024-02-26T10:56:55;6.20;;;4.75;;
28003;SDS011;15330;51.234;6.754;2024-02-26T10:59:21;6.55;;;4.88;;
28003;SDS011;15330;51.234;6.754;2024-02-26T11:01:50;8.32;;;5.65;;
28003;SDS011;15330;51.234;6.754;2024-02-26T11:04:16;7.28;;;5.47;;
28003;SDS011;15330;51.234;6.754;2024-02-26T11:06:42;7.18;;;5.20;;
28003;SDS011;15330;51.234;6.754;2024-02-26T11:09:11;8.48;;;5.40;;
28003;SDS011;15330;51.234;6.754;2024-02-26T11:11:38;8.02;;;5.78;;
28003;SDS011;15330;51.234;6.754;2024-02-26T11:14:05;12.38;;;5.90;;
28003;SDS011;15330;51.234;6.754;2024-02-26T11:16:34;9.07;;;6.50;;
28003;SDS011;15330;51.234;6.754;2024-02-26T11:19:01;11.68;;;7.10;;
28003;SDS011;15330;51.234;6.754;2024-02-26T11:21:27;10.60;;;6.88;;
28003;SDS011;15330;51.234;6.754;2024-02-26T11:24:03;13.20;;;6.55;;
28003;SDS011;15330;51.234;6.754;2024-02-26T11:26:49;13.15;;;7.15;;
28003;SDS011;15330;51.234;6.754;2024-02-26T11:29:28;11.68;;;7.10;;
28003;SDS011;15330;51.234;6.754;2024-02-26T11:32:04;11.35;;;6.90;;
28003;SDS011;15330;51.234;6.754;2024-02-26T11:34:31;12.63;;;7.40;;
28003;SDS011;15330;51.234;6.754;2024-02-26T11:36:57;11.15;;;7.60;;
28003;SDS011;15330;51.234;6.754;2024-02-26T11:39:23;11.93;;;6.72;;
28003;SDS011;15330;51.234;6.754;2024-02-26T11:41:50;11.20;;;7.32;;
28003;SDS011;15330;51.234;6.754;2024-02-26T11:44:15;11.85;;;7.15;;
28003;SDS011;15330;51.234;6.754;2024-02-26T11:46:54;8.90;;;6.55;;
28003;SDS011;15330;51.234;6.754;2024-02-26T11:51:57;9.10;;;6.78;;
28003;SDS011;15330;51.234;6.754;2024-02-26T11:57:27;11.65;;;7.50;;
28003;SDS011;15330;51.234;6.754;2024-02-26T12:00:03;11.05;;;6.90;;
28003;SDS011;15330;51.234;6.754;2024-02-26T12:05:15;11.73;;;6.65;;
28003;SDS011;15330;51.234;6.754;2024-02-26T12:07:49;10.20;;;7.20;;
28003;SDS011;15330;51.234;6.754;2024-02-26T12:10:23;13.70;;;7.65;;
28003;SDS011;15330;51.234;6.754;2024-02-26T12:12:54;12.07;;;7.47;;
28003;SDS011;15330;51.234;6.754;2024-02-26T12:15:24;11.52;;;8.20;;
28003;SDS011;15330;51.234;6.754;2024-02-26T12:17:55;13.57;;;9.07;;
28003;SDS011;15330;51.234;6.754;2024-02-26T12:20:21;17.38;;;8.80;;
28003;SDS011;15330;51.234;6.754;2024-02-26T12:22:47;13.40;;;8.60;;
28003;SDS011;15330;51.234;6.754;2024-02-26T12:25:13;16.08;;;9.48;;
28003;SDS011;15330;51.234;6.754;2024-02-26T12:27:39;14.43;;;9.00;;
28003;SDS011;15330;51.234;6.754;2024-02-26T12:30:04;14.20;;;9.13;;
28003;SDS011;15330;51.234;6.754;2024-02-26T12:32:31;15.82;;;9.73;;
28003;SDS011;15330;51.234;6.754;2024-02-26T12:34:57;15.88;;;10.30;;
28003;SDS011;15330;51.234;6.754;2024-02-26T12:37:25;21.67;;;11.25;;
28003;SDS011;15330;51.234;6.754;2024-02-26T12:39:51;18.02;;;11.13;;
28003;SDS011;15330;51.234;6.754;2024-02-26T12:42:16;19.05;;;10.98;;
28003;SDS011;15330;51.234;6.754;2024-02-26T12:44:42;17.42;;;11.02;;
28003;SDS011;15330;51.234;6.754;2024-02-26T12:47:10;20.15;;;11.80;;
28003;SDS011;15330;51.234;6.754;2024-02-26T12:49:41;19.50;;;12.10;;
28003;SDS011;15330;51.234;6.754;2024-02-26T12:52:07;21.30;;;11.85;;
28003;SDS011;15330;51.234;6.754;2024-02-26T12:54:33;19.17;;;10.95;;
28003;SDS011;15330;51.234;6.754;2024-02-26T12:57:00;17.15;;;11.30;;
28003;SDS011;15330;51.234;6.754;2024-02-26T12:59:27;22.92;;;11.70;;
28003;SDS011;15330;51.234;6.754;2024-02-26T13:01:53;18.20;;;11.73;;
28003;SDS011;15330;51.234;6.754;2024-02-26T13:04:18;17.60;;;11.07;;
28003;SDS011;15330;51.234;6.754;2024-02-26T13:06:44;21.42;;;11.50;;
28003;SDS011;15330;51.234;6.754;2024-02-26T13:09:15;18.30;;;11.88;;
28003;SDS011;15330;51.234;6.754;2024-02-26T13:11:40;16.95;;;12.07;;
28003;SDS011;15330;51.234;6.754;2024-02-26T13:14:06;19.23;;;11.07;;
28003;SDS011;15330;51.234;6.754;2024-02-26T13:16:31;16.95;;;10.82;;
28003;SDS011;15330;51.234;6.754;2024-02-26T13:19:07;17.08;;;11.60;;
28003;SDS011;15330;51.234;6.754;2024-02-26T13:21:34;19.13;;;12.27;;
28003;SDS011;15330;51.234;6.754;2024-02-26T13:24:00;18.73;;;12.23;;
28003;SDS011;15330;51.234;6.754;2024-02-26T13:26:25;24.08;;;12.65;;
28003;SDS011;15330;51.234;6.754;2024-02-26T13:29:00;19.88;;;12.55;;
28003;SDS011;15330;51.234;6.754;2024-02-26T13:31:28;19.75;;;12.05;;
28003;SDS011;15330;51.234;6.754;2024-02-26T13:33:53;19.20;;;12.27;;
28003;SDS011;15330;51.234;6.754;2024-02-26T13:36:21;20.30;;;12.63;;
28003;SDS011;15330;51.234;6.754;2024-02-26T13:38:53;20.83;;;12.88;;
28003;SDS011;15330;51.234;6.754;2024-02-26T13:41:20;18.97;;;12.00;;
28003;SDS011;15330;51.234;6.754;2024-02-26T13:43:48;20.23;;;12.63;;
28003;SDS011;15330;51.234;6.754;2024-02-26T13:46:15;18.63;;;12.70;;
28003;SDS011;15330;51.234;6.754;2024-02-26T13:48:42;18.50;;;12.05;;
28003;SDS011;15330;51.234;6.754;2024-02-26T13:51:07;18.27;;;12.27;;
28003;SDS011;15330;51.234;6.754;2024-02-26T13:53:33;19.02;;;12.93;;
28003;SDS011;15330;51.234;6.754;2024-02-26T13:55:58;18.63;;;12.48;;
28003;SDS011;15330;51.234;6.754;2024-02-26T13:58:26;21.40;;;12.40;;
28003;SDS011;15330;51.234;6.754;2024-02-26T14:00:52;19.95;;;12.40;;
28003;SDS011;15330;51.234;6.754;2024-02-26T14:03:20;17.65;;;11.65;;
28003;SDS011;15330;51.234;6.754;2024-02-26T14:05:45;20.52;;;12.93;;
28003;SDS011;15330;51.234;6.754;2024-02-26T14:08:11;20.40;;;12.00;;
28003;SDS011;15330;51.234;6.754;2024-02-26T14:10:37;19.65;;;11.98;;
28003;SDS011;15330;51.234;6.754;2024-02-26T14:13:03;15.35;;;10.65;;
28003;SDS011;15330;51.234;6.754;2024-02-26T14:15:29;16.58;;;11.85;;
28003;SDS011;15330;51.234;6.754;2024-02-26T14:17:54;19.35;;;11.10;;
28003;SDS011;15330;51.234;6.754;2024-02-26T14:20:24;14.43;;;10.40;;
28003;SDS011;15330;51.234;6.754;2024-02-26T14:22:50;15.50;;;10.20;;
28003;SDS011;15330;51.234;6.754;2024-02-26T14:25:19;17.77;;;10.57;;
28003;SDS011;15330;51.234;6.754;2024-02-26T14:27:48;17.33;;;10.15;;
28003;SDS011;15330;51.234;6.754;2024-02-26T14:30:14;13.73;;;9.45;;
28003;SDS011;15330;51.234;6.754;2024-02-26T14:32:40;15.13;;;9.45;;
28003;SDS011;15330;51.234;6.754;2024-02-26T14:35:06;15.18;;;10.60;;
28003;SDS011;15330;51.234;6.754;2024-02-26T14:37:34;13.88;;;9.13;;
28003;SDS011;15330;51.234;6.754;2024-02-26T14:40:01;16.90;;;10.55;;
28003;SDS011;15330;51.234;6.754;2024-02-26T14:42:30;14.15;;;8.95;;
28003;SDS011;15330;51.234;6.754;2024-02-26T14:44:55;19.67;;;9.82;;
28003;SDS011;15330;51.234;6.754;2024-02-26T14:47:21;13.05;;;9.13;;